sensor_id;sensor_type;location;lat;lon;timestamp;pressure;altitude;pressure_sealevel;temperature;humidity
53262;BME280;39658;51.090;-1.786;2023-04-30T00:01:25;98523.63;;;5.42;100.00
53262;BME280;39658;51.090;-1.786;2023-04-30T00:03:51;98526.72;;;5.35;100.00
53262;BME280;39658;51.090;-1.786;2023-04-30T00:06:18;98540.50;;;5.26;100.00
53262;BME280;39658;51.090;-1.786;2023-04-30T00:08:45;98549.44;;;5.24;100.00
53262;BME280;39658;51.090;-1.786;2023-04-30T00:11:13;98538.38;;;5.20;100.00
53262;BME280;39658;51.090;-1.786;2023-04-30T00:13:40;98528.66;;;5.22;100.00
53262;BME280;39658;51.090;-1.786;2023-04-30T00:16:07;98543.72;;;5.18;100.00
53262;BME280;39658;51.090;-1.786;2023-04-30T00:18:35;98549.31;;;5.14;100.00
53262;BME280;39658;51.090;-1.786;2023-04-30T00:21:02;98554.91;;;5.09;100.00
53262;BME280;39658;51.090;-1.786;2023-04-30T00:23:28;98551.81;;;5.04;100.00
53262;BME280;39658;51.090;-1.786;2023-04-30T00:25:55;98556.34;;;5.02;100.00
53262;BME280;39658;51.090;-1.786;2023-04-30T00:28:23;98560.97;;;4.98;100.00
53262;BME280;39658;51.090;-1.786;2023-04-30T00:30:50;98571.63;;;4.95;100.00
53262;BME280;39658;51.090;-1.786;2023-04-30T00:33:17;98578.19;;;4.90;100.00
53262;BME280;39658;51.090;-1.786;2023-04-30T00:35:44;98585.06;;;4.91;100.00
53262;BME280;39658;51.090;-1.786;2023-04-30T00:38:11;98600.94;;;4.88;100.00
53262;BME280;39658;51.090;-1.786;2023-04-30T00:40:39;98631.69;;;4.84;100.00
53262;BME280;39658;51.090;-1.786;2023-04-30T00:43:06;98666.81;;;4.80;100.00
53262;BME280;39658;51.090;-1.786;2023-04-30T00:45:34;98742.84;;;4.75;100.00
53262;BME280;39658;51.090;-1.786;2023-04-30T00:48:01;98817.84;;;4.73;100.00
53262;BME280;39658;51.090;-1.786;2023-04-30T00:50:28;98945.06;;;4.71;100.00
53262;BME280;39658;51.090;-1.786;2023-04-30T00:52:55;102175.78;;;4.70;100.00
53262;BME280;39658;51.090;-1.786;2023-04-30T00:55:24;102265.44;;;4.72;100.00
53262;BME280;39658;51.090;-1.786;2023-04-30T00:57:51;102327.25;;;4.74;100.00
53262;BME280;39658;51.090;-1.786;2023-04-30T01:00:18;102365.56;;;4.74;100.00
53262;BME280;39658;51.090;-1.786;2023-04-30T01:02:47;102393.47;;;4.70;100.00
53262;BME280;39658;51.090;-1.786;2023-04-30T01:05:14;102418.78;;;4.68;100.00
53262;BME280;39658;51.090;-1.786;2023-04-30T01:07:41;102436.22;;;4.66;100.00
53262;BME280;39658;51.090;-1.786;2023-04-30T01:10:11;102460.63;;;4.65;100.00
53262;BME280;39658;51.090;-1.786;2023-04-30T01:12:43;102464.97;;;4.64;100.00
53262;BME280;39658;51.090;-1.786;2023-04-30T01:15:15;102475.34;;;4.69;100.00
53262;BME280;39658;51.090;-1.786;2023-04-30T01:17:50;102482.34;;;4.68;100.00
53262;BME280;39658;51.090;-1.786;2023-04-30T01:20:20;102498.94;;;4.64;100.00
53262;BME280;39658;51.090;-1.786;2023-04-30T01:22:51;102505.97;;;4.61;100.00
53262;BME280;39658;51.090;-1.786;2023-04-30T01:25:34;102521.69;;;4.56;100.00
53262;BME280;39658;51.090;-1.786;2023-04-30T01:28:12;102524.38;;;4.50;100.00
53262;BME280;39658;51.090;-1.786;2023-04-30T01:30:41;102528.78;;;4.46;100.00
53262;BME280;39658;51.090;-1.786;2023-04-30T01:33:09;102524.47;;;4.42;100.00
53262;BME280;39658;51.090;-1.786;2023-04-30T01:38:36;102534.94;;;4.39;100.00
53262;BME280;39658;51.090;-1.786;2023-04-30T01:41:09;102547.16;;;4.36;100.00
53262;BME280;39658;51.090;-1.786;2023-04-30T01:43:44;102542.84;;;4.33;100.00
53262;BME280;39658;51.090;-1.786;2023-04-30T01:46:21;102538.53;;;4.32;100.00
53262;BME280;39658;51.090;-1.786;2023-04-30T01:48:55;102548.06;;;4.31;100.00
53262;BME280;39658;51.090;-1.786;2023-04-30T01:51:30;102548.09;;;4.30;100.00
53262;BME280;39658;51.090;-1.786;2023-04-30T01:54:04;102543.75;;;4.32;100.00
53262;BME280;39658;51.090;-1.786;2023-04-30T01:56:36;102548.97;;;4.30;100.00
53262;BME280;39658;51.090;-1.786;2023-04-30T01:59:07;102546.34;;;4.34;100.00
53262;BME280;39658;51.090;-1.786;2023-04-30T02:01:35;102550.63;;;4.36;100.00
53262;BME280;39658;51.090;-1.786;2023-04-30T02:04:02;102558.50;;;4.35;100.00
53262;BME280;39658;51.090;-1.786;2023-04-30T02:06:29;102555.91;;;4.31;100.00
53262;BME280;39658;51.090;-1.786;2023-04-30T02:08:56;102555.06;;;4.31;100.00
53262;BME280;39658;51.090;-1.786;2023-04-30T02:11:27;102555.94;;;4.27;100.00
53262;BME280;39658;51.090;-1.786;2023-04-30T02:13:54;102559.50;;;4.23;100.00
53262;BME280;39658;51.090;-1.786;2023-04-30T02:16:22;102558.59;;;4.24;100.00
53262;BME280;39658;51.090;-1.786;2023-04-30T02:18:49;102566.44;;;4.22;100.00
53262;BME280;39658;51.090;-1.786;2023-04-30T02:21:16;102564.75;;;4.20;100.00
53262;BME280;39658;51.090;-1.786;2023-04-30T02:23:43;102576.03;;;4.20;100.00
53262;BME280;39658;51.090;-1.786;2023-04-30T02:26:10;102574.31;;;4.19;100.00
53262;BME280;39658;51.090;-1.786;2023-04-30T02:28:36;102569.06;;;4.21;100.00
53262;BME280;39658;51.090;-1.786;2023-04-30T02:31:03;102574.28;;;4.21;100.00
53262;BME280;39658;51.090;-1.786;2023-04-30T02:33:31;102583.00;;;4.23;100.00
53262;BME280;39658;51.090;-1.786;2023-04-30T02:35:59;102569.97;;;4.21;100.00
53262;BME280;39658;51.090;-1.786;2023-04-30T02:38:26;102582.13;;;4.19;100.00
53262;BME280;39658;51.090;-1.786;2023-04-30T02:40:53;102581.34;;;4.11;100.00
53262;BME280;39658;51.090;-1.786;2023-04-30T02:43:19;102581.38;;;4.08;100.00
53262;BME280;39658;51.090;-1.786;2023-04-30T02:45:46;102571.84;;;4.04;100.00
53262;BME280;39658;51.090;-1.786;2023-04-30T02:48:14;102565.81;;;3.97;100.00
53262;BME280;39658;51.090;-1.786;2023-04-30T02:50:42;102569.25;;;4.02;100.00
53262;BME280;39658;51.090;-1.786;2023-04-30T02:53:09;102564.88;;;4.06;100.00
53262;BME280;39658;51.090;-1.786;2023-04-30T02:55:36;102564.00;;;4.04;100.00
53262;BME280;39658;51.090;-1.786;2023-04-30T02:58:03;102562.34;;;3.98;100.00
53262;BME280;39658;51.090;-1.786;2023-04-30T03:00:29;102568.41;;;3.99;100.00
53262;BME280;39658;51.090;-1.786;2023-04-30T03:02:56;102571.06;;;3.94;100.00
53262;BME280;39658;51.090;-1.786;2023-04-30T03:05:23;102569.34;;;3.90;100.00
53262;BME280;39658;51.090;-1.786;2023-04-30T03:07:51;102560.66;;;3.89;100.00
53262;BME280;39658;51.090;-1.786;2023-04-30T03:10:18;102554.59;;;3.87;100.00
53262;BME280;39658;51.090;-1.786;2023-04-30T03:12:45;102362.50;;;3.75;100.00
53262;BME280;39658;51.090;-1.786;2023-04-30T03:15:11;102377.19;;;3.86;100.00
53262;BME280;39658;51.090;-1.786;2023-04-30T03:17:38;102377.25;;;3.78;100.00
53262;BME280;39658;51.090;-1.786;2023-04-30T03:20:06;102379.06;;;3.73;100.00
53262;BME280;39658;51.090;-1.786;2023-04-30T03:22:33;102377.38;;;3.67;100.00
53262;BME280;39658;51.090;-1.786;2023-04-30T03:25:01;102368.72;;;3.64;100.00
53262;BME280;39658;51.090;-1.786;2023-04-30T03:27:28;102367.00;;;3.63;100.00
53262;BME280;39658;51.090;-1.786;2023-04-30T03:29:54;102360.91;;;3.62;100.00
53262;BME280;39658;51.090;-1.786;2023-04-30T03:32:21;102365.25;;;3.60;100.00
53262;BME280;39658;51.090;-1.786;2023-04-30T03:34:49;102352.19;;;3.65;100.00
53262;BME280;39658;51.090;-1.786;2023-04-30T03:37:16;102354.72;;;3.71;100.00
53262;BME280;39658;51.090;-1.786;2023-04-30T03:39:42;102355.63;;;3.68;100.00
53262;BME280;39658;51.090;-1.786;2023-04-30T03:42:10;102359.19;;;3.61;100.00
53262;BME280;39658;51.090;-1.786;2023-04-30T03:44:37;102362.72;;;3.54;100.00
53262;BME280;39658;51.090;-1.786;2023-04-30T03:47:04;102355.78;;;3.54;100.00
53262;BME280;39658;51.090;-1.786;2023-04-30T03:49:31;102356.66;;;3.52;100.00
53262;BME280;39658;51.090;-1.786;2023-04-30T03:51:58;102356.72;;;3.46;100.00
53262;BME280;39658;51.090;-1.786;2023-04-30T03:54:25;102353.31;;;3.40;100.00
53262;BME280;39658;51.090;-1.786;2023-04-30T03:56:52;102352.47;;;3.37;100.00
53262;BME280;39658;51.090;-1.786;2023-04-30T03:59:20;102353.34;;;3.36;100.00
53262;BME280;39658;51.090;-1.786;2023-04-30T04:01:47;102354.22;;;3.35;100.00
53262;BME280;39658;51.090;-1.786;2023-04-30T04:04:14;102348.16;;;3.34;100.00
53262;BME280;39658;51.090;-1.786;2023-04-30T04:06:41;102345.59;;;3.30;100.00
53262;BME280;39658;51.090;-1.786;2023-04-30T04:09:07;102353.41;;;3.31;100.00
53262;BME280;39658;51.090;-1.786;2023-04-30T04:11:34;102343.00;;;3.28;100.00
53262;BME280;39658;51.090;-1.786;2023-04-30T04:14:01;102343.88;;;3.27;100.00
53262;BME280;39658;51.090;-1.786;2023-04-30T04:16:29;102349.97;;;3.24;100.00
53262;BME280;39658;51.090;-1.786;2023-04-30T04:18:56;102343.94;;;3.21;100.00
53262;BME280;39658;51.090;-1.786;2023-04-30T04:21:22;102350.00;;;3.20;100.00
53262;BME280;39658;51.090;-1.786;2023-04-30T04:23:49;102347.38;;;3.21;100.00
53262;BME280;39658;51.090;-1.786;2023-04-30T04:26:16;102346.44;;;3.30;100.00
53262;BME280;39658;51.090;-1.786;2023-04-30T04:28:44;102346.31;;;3.42;100.00
53262;BME280;39658;51.090;-1.786;2023-04-30T04:31:12;102347.91;;;3.59;100.00
53262;BME280;39658;51.090;-1.786;2023-04-30T04:33:40;102350.38;;;3.73;100.00
53262;BME280;39658;51.090;-1.786;2023-04-30T04:36:07;102349.31;;;3.86;100.00
53262;BME280;39658;51.090;-1.786;2023-04-30T04:38:33;102358.75;;;3.98;100.00
53262;BME280;39658;51.090;-1.786;2023-04-30T04:41:00;102357.78;;;4.05;100.00
53262;BME280;39658;51.090;-1.786;2023-04-30T04:43:27;102359.47;;;4.11;100.00
53262;BME280;39658;51.090;-1.786;2023-04-30T04:45:54;102364.59;;;4.19;100.00
53262;BME280;39658;51.090;-1.786;2023-04-30T04:48:20;102355.81;;;4.26;100.00
53262;BME280;39658;51.090;-1.786;2023-04-30T04:50:49;102351.34;;;4.34;100.00
53262;BME280;39658;51.090;-1.786;2023-04-30T04:53:15;102343.47;;;4.37;100.00
53262;BME280;39658;51.090;-1.786;2023-04-30T04:55:42;102338.16;;;4.43;100.00
53262;BME280;39658;51.090;-1.786;2023-04-30T04:58:09;102344.97;;;4.52;100.00
53262;BME280;39658;51.090;-1.786;2023-04-30T05:00:37;102342.25;;;4.60;100.00
53262;BME280;39658;51.090;-1.786;2023-04-30T05:03:04;102330.00;;;4.65;100.00
53262;BME280;39658;51.090;-1.786;2023-04-30T05:05:30;102330.72;;;4.73;100.00
53262;BME280;39658;51.090;-1.786;2023-04-30T05:07:59;102338.41;;;4.84;100.00
53262;BME280;39658;51.090;-1.786;2023-04-30T05:10:25;102331.16;;;5.00;100.00
53262;BME280;39658;51.090;-1.786;2023-04-30T05:12:52;102321.34;;;5.14;100.00
53262;BME280;39658;51.090;-1.786;2023-04-30T05:15:19;102317.69;;;5.23;100.00
53262;BME280;39658;51.090;-1.786;2023-04-30T05:17:46;102305.34;;;5.30;100.00
53262;BME280;39658;51.090;-1.786;2023-04-30T05:20:12;102302.50;;;5.42;100.00
53262;BME280;39658;51.090;-1.786;2023-04-30T05:22:39;102302.47;;;5.44;100.00
53262;BME280;39658;51.090;-1.786;2023-04-30T05:25:08;102301.47;;;5.52;100.00
53262;BME280;39658;51.090;-1.786;2023-04-30T05:27:35;102303.06;;;5.60;100.00
53262;BME280;39658;51.090;-1.786;2023-04-30T05:30:02;102310.75;;;5.69;100.00
53262;BME280;39658;51.090;-1.786;2023-04-30T05:32:29;102304.47;;;5.76;100.00
53262;BME280;39658;51.090;-1.786;2023-04-30T05:34:56;102304.34;;;5.82;100.00
53262;BME280;39658;51.090;-1.786;2023-04-30T05:37:23;102302.34;;;5.95;100.00
53262;BME280;39658;51.090;-1.786;2023-04-30T05:39:49;102304.69;;;6.09;100.00
53262;BME280;39658;51.090;-1.786;2023-04-30T05:42:19;102302.63;;;6.23;100.00
53262;BME280;39658;51.090;-1.786;2023-04-30T05:44:47;102304.03;;;6.38;100.00
53262;BME280;39658;51.090;-1.786;2023-04-30T05:47:14;102308.91;;;6.54;100.00
53262;BME280;39658;51.090;-1.786;2023-04-30T05:49:41;102307.72;;;6.67;100.00
53262;BME280;39658;51.090;-1.786;2023-04-30T05:52:08;102309.28;;;6.76;100.00
53262;BME280;39658;51.090;-1.786;2023-04-30T05:54:34;102312.44;;;6.89;100.00
53262;BME280;39658;51.090;-1.786;2023-04-30T05:57:01;102311.19;;;7.04;100.00
53262;BME280;39658;51.090;-1.786;2023-04-30T05:59:29;102306.50;;;7.16;100.00
53262;BME280;39658;51.090;-1.786;2023-04-30T06:01:56;102310.53;;;7.28;100.00
53262;BME280;39658;51.090;-1.786;2023-04-30T06:04:23;102306.69;;;7.42;100.00
53262;BME280;39658;51.090;-1.786;2023-04-30T06:06:50;102312.59;;;7.50;100.00
53262;BME280;39658;51.090;-1.786;2023-04-30T06:09:17;102317.53;;;7.61;100.00
53262;BME280;39658;51.090;-1.786;2023-04-30T06:11:44;102322.69;;;7.64;100.00
53262;BME280;39658;51.090;-1.786;2023-04-30T06:14:14;102322.53;;;7.70;100.00
53262;BME280;39658;51.090;-1.786;2023-04-30T06:16:43;102323.97;;;7.82;100.00
53262;BME280;39658;51.090;-1.786;2023-04-30T06:19:10;102329.94;;;7.87;100.00
53262;BME280;39658;51.090;-1.786;2023-04-30T06:21:36;102334.38;;;7.85;100.00
53262;BME280;39658;51.090;-1.786;2023-04-30T06:24:04;102338.47;;;7.94;100.00
53262;BME280;39658;51.090;-1.786;2023-04-30T06:26:31;102342.75;;;7.98;100.00
53262;BME280;39658;51.090;-1.786;2023-04-30T06:28:58;102347.06;;;8.00;100.00
53262;BME280;39658;51.090;-1.786;2023-04-30T06:31:24;102354.84;;;8.03;100.00
53262;BME280;39658;51.090;-1.786;2023-04-30T06:33:53;102371.41;;;8.05;100.00
53262;BME280;39658;51.090;-1.786;2023-04-30T06:36:19;102378.13;;;8.16;100.00
53262;BME280;39658;51.090;-1.786;2023-04-30T06:38:46;102395.28;;;8.27;100.00
53262;BME280;39658;51.090;-1.786;2023-04-30T06:41:13;102415.19;;;8.36;100.00
53262;BME280;39658;51.090;-1.786;2023-04-30T06:43:40;102441.09;;;8.50;100.00
53262;BME280;39658;51.090;-1.786;2023-04-30T06:46:07;102490.75;;;8.61;100.00
53262;BME280;39658;51.090;-1.786;2023-04-30T06:48:34;102498.41;;;8.69;100.00
53262;BME280;39658;51.090;-1.786;2023-04-30T06:51:03;102490.19;;;8.79;100.00
53262;BME280;39658;51.090;-1.786;2023-04-30T06:53:29;102451.13;;;8.95;100.00
53262;BME280;39658;51.090;-1.786;2023-04-30T06:55:56;102435.09;;;9.03;100.00
53262;BME280;39658;51.090;-1.786;2023-04-30T06:58:23;102441.97;;;9.07;100.00
53262;BME280;39658;51.090;-1.786;2023-04-30T07:00:50;102443.63;;;9.10;100.00
53262;BME280;39658;51.090;-1.786;2023-04-30T07:03:16;102453.22;;;9.12;100.00
53262;BME280;39658;51.090;-1.786;2023-04-30T07:05:43;102473.28;;;9.15;100.00
53262;BME280;39658;51.090;-1.786;2023-04-30T07:08:11;102478.56;;;9.15;100.00
53262;BME280;39658;51.090;-1.786;2023-04-30T07:10:39;102484.25;;;9.29;100.00
53262;BME280;39658;51.090;-1.786;2023-04-30T07:13:06;102482.94;;;9.43;100.00
53262;BME280;39658;51.090;-1.786;2023-04-30T07:15:33;102493.97;;;9.54;100.00
53262;BME280;39658;51.090;-1.786;2023-04-30T07:17:59;102504.00;;;9.69;100.00
53262;BME280;39658;51.090;-1.786;2023-04-30T07:20:29;102514.34;;;9.76;100.00
53262;BME280;39658;51.090;-1.786;2023-04-30T07:22:56;102528.75;;;9.91;100.00
53262;BME280;39658;51.090;-1.786;2023-04-30T07:25:24;102533.38;;;10.09;100.00
53262;BME280;39658;51.090;-1.786;2023-04-30T07:27:51;102531.94;;;10.26;100.00
53262;BME280;39658;51.090;-1.786;2023-04-30T07:30:18;102526.09;;;10.43;100.00
53262;BME280;39658;51.090;-1.786;2023-04-30T07:32:46;102514.25;;;10.53;100.00
53262;BME280;39658;51.090;-1.786;2023-04-30T07:35:13;102519.94;;;10.66;100.00
53262;BME280;39658;51.090;-1.786;2023-04-30T07:37:40;102497.44;;;10.79;100.00
53262;BME280;39658;51.090;-1.786;2023-04-30T07:40:09;102423.56;;;10.79;100.00
53262;BME280;39658;51.090;-1.786;2023-04-30T07:42:39;102397.56;;;10.70;100.00
53262;BME280;39658;51.090;-1.786;2023-04-30T07:45:07;102388.91;;;10.66;100.00
53262;BME280;39658;51.090;-1.786;2023-04-30T07:47:34;102374.59;;;10.72;100.00
53262;BME280;39658;51.090;-1.786;2023-04-30T07:50:01;102373.56;;;10.76;100.00
53262;BME280;39658;51.090;-1.786;2023-04-30T07:52:28;102366.81;;;10.69;100.00
53262;BME280;39658;51.090;-1.786;2023-04-30T07:54:54;102362.97;;;10.77;100.00
53262;BME280;39658;51.090;-1.786;2023-04-30T07:57:21;102338.13;;;10.83;100.00
53262;BME280;39658;51.090;-1.786;2023-04-30T07:59:52;102325.56;;;10.88;100.00
53262;BME280;39658;51.090;-1.786;2023-04-30T08:02:19;102279.75;;;10.91;100.00
53262;BME280;39658;51.090;-1.786;2023-04-30T08:04:46;102206.38;;;10.99;100.00
53262;BME280;39658;51.090;-1.786;2023-04-30T08:07:13;97150.16;;;11.01;100.00
53262;BME280;39658;51.090;-1.786;2023-04-30T08:09:41;97251.75;;;11.25;100.00
53262;BME280;39658;51.090;-1.786;2023-04-30T08:12:08;97306.66;;;11.43;100.00
53262;BME280;39658;51.090;-1.786;2023-04-30T08:14:34;97317.06;;;11.51;100.00
53262;BME280;39658;51.090;-1.786;2023-04-30T08:17:03;97319.44;;;11.67;100.00
53262;BME280;39658;51.090;-1.786;2023-04-30T08:19:29;97368.28;;;11.85;100.00
53262;BME280;39658;51.090;-1.786;2023-04-30T08:21:57;99422.66;;;11.92;100.00
53262;BME280;39658;51.090;-1.786;2023-04-30T08:24:24;99461.91;;;11.96;100.00
53262;BME280;39658;51.090;-1.786;2023-04-30T08:26:51;99502.16;;;11.79;100.00
53262;BME280;39658;51.090;-1.786;2023-04-30T08:29:18;99523.00;;;11.82;100.00
53262;BME280;39658;51.090;-1.786;2023-04-30T08:31:44;99572.09;;;11.75;100.00
53262;BME280;39658;51.090;-1.786;2023-04-30T08:34:12;99610.97;;;11.73;100.00
53262;BME280;39658;51.090;-1.786;2023-04-30T08:36:39;99619.31;;;11.68;100.00
53262;BME280;39658;51.090;-1.786;2023-04-30T08:39:06;99626.41;;;11.77;100.00
53262;BME280;39658;51.090;-1.786;2023-04-30T08:41:33;99633.94;;;11.82;100.00
53262;BME280;39658;51.090;-1.786;2023-04-30T08:44:01;99641.88;;;11.92;100.00
53262;BME280;39658;51.090;-1.786;2023-04-30T08:46:30;99637.06;;;12.07;100.00
53262;BME280;39658;51.090;-1.786;2023-04-30T08:48:57;99649.72;;;12.23;100.00
53262;BME280;39658;51.090;-1.786;2023-04-30T08:51:26;99659.75;;;12.29;100.00
53262;BME280;39658;51.090;-1.786;2023-04-30T08:53:54;99657.94;;;12.39;100.00
53262;BME280;39658;51.090;-1.786;2023-04-30T08:56:20;99660.72;;;12.57;100.00
53262;BME280;39658;51.090;-1.786;2023-04-30T08:58:47;99677.28;;;12.69;100.00
53262;BME280;39658;51.090;-1.786;2023-04-30T09:01:15;99686.06;;;12.69;100.00
53262;BME280;39658;51.090;-1.786;2023-04-30T09:03:42;99690.66;;;12.77;100.00
53262;BME280;39658;51.090;-1.786;2023-04-30T09:06:08;99705.53;;;12.78;100.00
53262;BME280;39658;51.090;-1.786;2023-04-30T09:08:44;99685.34;;;12.87;100.00
53262;BME280;39658;51.090;-1.786;2023-04-30T09:11:24;99692.00;;;12.91;100.00
53262;BME280;39658;51.090;-1.786;2023-04-30T09:13:52;99686.53;;;13.12;100.00
53262;BME280;39658;51.090;-1.786;2023-04-30T09:16:20;99680.78;;;13.26;100.00
53262;BME280;39658;51.090;-1.786;2023-04-30T09:18:47;99695.38;;;13.40;100.00
53262;BME280;39658;51.090;-1.786;2023-04-30T09:21:14;99693.13;;;13.55;100.00
53262;BME280;39658;51.090;-1.786;2023-04-30T09:23:56;99708.28;;;13.63;100.00
53262;BME280;39658;51.090;-1.786;2023-04-30T09:26:29;99718.38;;;13.77;100.00
53262;BME280;39658;51.090;-1.786;2023-04-30T09:28:57;99742.47;;;13.84;100.00
53262;BME280;39658;51.090;-1.786;2023-04-30T09:31:25;99746.75;;;13.95;100.00
53262;BME280;39658;51.090;-1.786;2023-04-30T09:33:52;99756.75;;;14.01;100.00
53262;BME280;39658;51.090;-1.786;2023-04-30T09:36:19;99748.22;;;14.07;100.00
53262;BME280;39658;51.090;-1.786;2023-04-30T09:38:46;99757.03;;;14.08;100.00
53262;BME280;39658;51.090;-1.786;2023-04-30T09:41:24;99741.84;;;14.28;100.00
53262;BME280;39658;51.090;-1.786;2023-04-30T09:43:52;99751.22;;;14.40;100.00
53262;BME280;39658;51.090;-1.786;2023-04-30T09:46:20;99766.91;;;14.33;100.00
53262;BME280;39658;51.090;-1.786;2023-04-30T09:48:55;99760.94;;;14.49;100.00
53262;BME280;39658;51.090;-1.786;2023-04-30T09:51:22;99757.81;;;14.64;100.00
53262;BME280;39658;51.090;-1.786;2023-04-30T09:53:50;99779.50;;;14.49;100.00
53262;BME280;39658;51.090;-1.786;2023-04-30T09:56:20;99779.78;;;14.46;100.00
53262;BME280;39658;51.090;-1.786;2023-04-30T09:58:51;99767.53;;;14.45;100.00
53262;BME280;39658;51.090;-1.786;2023-04-30T10:01:20;99774.28;;;14.58;100.00
53262;BME280;39658;51.090;-1.786;2023-04-30T10:03:47;99788.13;;;14.61;100.00
53262;BME280;39658;51.090;-1.786;2023-04-30T10:06:15;99789.88;;;14.70;100.00
53262;BME280;39658;51.090;-1.786;2023-04-30T10:08:46;99806.88;;;14.50;100.00
53262;BME280;39658;51.090;-1.786;2023-04-30T10:11:14;99794.81;;;14.38;100.00
53262;BME280;39658;51.090;-1.786;2023-04-30T10:13:46;99800.34;;;14.44;100.00
53262;BME280;39658;51.090;-1.786;2023-04-30T10:16:23;99793.19;;;14.45;100.00
53262;BME280;39658;51.090;-1.786;2023-04-30T10:18:53;99798.63;;;14.53;100.00
53262;BME280;39658;51.090;-1.786;2023-04-30T10:21:22;99788.34;;;14.68;100.00
53262;BME280;39658;51.090;-1.786;2023-04-30T10:23:52;99806.28;;;14.56;100.00
53262;BME280;39658;51.090;-1.786;2023-04-30T10:26:19;99804.50;;;14.47;100.00
53262;BME280;39658;51.090;-1.786;2023-04-30T10:28:49;99808.38;;;14.62;100.00
53262;BME280;39658;51.090;-1.786;2023-04-30T10:31:20;99808.97;;;14.74;100.00
53262;BME280;39658;51.090;-1.786;2023-04-30T10:33:53;99834.53;;;14.75;100.00
53262;BME280;39658;51.090;-1.786;2023-04-30T10:36:27;99833.31;;;14.87;100.00
53262;BME280;39658;51.090;-1.786;2023-04-30T10:38:57;99849.75;;;14.91;100.00
53262;BME280;39658;51.090;-1.786;2023-04-30T10:41:25;99824.56;;;15.31;100.00
53262;BME280;39658;51.090;-1.786;2023-04-30T10:43:57;99855.06;;;15.27;100.00
53262;BME280;39658;51.090;-1.786;2023-04-30T10:46:25;99860.06;;;15.48;100.00
53262;BME280;39658;51.090;-1.786;2023-04-30T10:48:53;99900.69;;;15.40;100.00
53262;BME280;39658;51.090;-1.786;2023-04-30T10:51:20;99885.28;;;15.26;100.00
53262;BME280;39658;51.090;-1.786;2023-04-30T10:53:49;99868.94;;;15.39;100.00
53262;BME280;39658;51.090;-1.786;2023-04-30T10:56:30;99871.00;;;14.73;100.00
53262;BME280;39658;51.090;-1.786;2023-04-30T10:59:00;99854.50;;;14.42;100.00
53262;BME280;39658;51.090;-1.786;2023-04-30T11:01:29;99841.94;;;14.16;100.00
53262;BME280;39658;51.090;-1.786;2023-04-30T11:04:04;99836.78;;;13.77;100.00
53262;BME280;39658;51.090;-1.786;2023-04-30T11:06:54;99826.91;;;13.69;100.00
53262;BME280;39658;51.090;-1.786;2023-04-30T11:09:34;99820.34;;;13.63;100.00
53262;BME280;39658;51.090;-1.786;2023-04-30T11:12:03;99829.72;;;13.28;100.00
53262;BME280;39658;51.090;-1.786;2023-04-30T11:14:31;99810.38;;;13.08;100.00
53262;BME280;39658;51.090;-1.786;2023-04-30T11:17:00;99791.69;;;13.00;100.00
53262;BME280;39658;51.090;-1.786;2023-04-30T11:19:27;99787.38;;;12.99;100.00
53262;BME280;39658;51.090;-1.786;2023-04-30T11:22:16;99779.84;;;12.75;100.00
53262;BME280;39658;51.090;-1.786;2023-04-30T11:25:03;99765.41;;;12.69;100.00
53262;BME280;39658;51.090;-1.786;2023-04-30T11:27:31;99771.25;;;12.73;100.00
53262;BME280;39658;51.090;-1.786;2023-04-30T11:29:59;99773.47;;;12.68;100.00
53262;BME280;39658;51.090;-1.786;2023-04-30T11:32:33;99761.06;;;12.88;100.00
53262;BME280;39658;51.090;-1.786;2023-04-30T11:35:01;99774.56;;;12.75;100.00
53262;BME280;39658;51.090;-1.786;2023-04-30T11:37:30;99781.25;;;12.69;100.00
53262;BME280;39658;51.090;-1.786;2023-04-30T11:40:00;99788.22;;;12.70;100.00
53262;BME280;39658;51.090;-1.786;2023-04-30T11:42:27;99768.03;;;13.08;100.00
53262;BME280;39658;51.090;-1.786;2023-04-30T11:45:02;99775.69;;;13.41;100.00
53262;BME280;39658;51.090;-1.786;2023-04-30T11:47:39;99773.78;;;13.61;100.00
53262;BME280;39658;51.090;-1.786;2023-04-30T11:50:08;99787.72;;;13.63;100.00
53262;BME280;39658;51.090;-1.786;2023-04-30T11:52:36;99786.59;;;13.75;100.00
53262;BME280;39658;51.090;-1.786;2023-04-30T11:55:07;99778.59;;;13.85;100.00
53262;BME280;39658;51.090;-1.786;2023-04-30T11:57:41;99780.50;;;13.93;100.00
53262;BME280;39658;51.090;-1.786;2023-04-30T12:00:13;99789.13;;;13.95;100.00
53262;BME280;39658;51.090;-1.786;2023-04-30T12:02:42;99792.94;;;13.92;100.00
53262;BME280;39658;51.090;-1.786;2023-04-30T12:05:14;99785.88;;;14.11;100.00
53262;BME280;39658;51.090;-1.786;2023-04-30T12:07:48;99787.50;;;14.22;100.00
53262;BME280;39658;51.090;-1.786;2023-04-30T12:10:18;99792.31;;;14.08;100.00
53262;BME280;39658;51.090;-1.786;2023-04-30T12:12:45;99803.94;;;13.97;100.00
53262;BME280;39658;51.090;-1.786;2023-04-30T12:15:14;99815.50;;;13.96;100.00
53262;BME280;39658;51.090;-1.786;2023-04-30T12:17:43;99822.47;;;13.97;100.00
53262;BME280;39658;51.090;-1.786;2023-04-30T12:20:11;99812.25;;;14.03;100.00
53262;BME280;39658;51.090;-1.786;2023-04-30T12:22:39;99812.84;;;13.96;100.00
53262;BME280;39658;51.090;-1.786;2023-04-30T12:25:08;99806.75;;;13.86;100.00
53262;BME280;39658;51.090;-1.786;2023-04-30T12:27:38;99804.56;;;13.81;100.00
53262;BME280;39658;51.090;-1.786;2023-04-30T12:30:07;99808.47;;;13.77;100.00
53262;BME280;39658;51.090;-1.786;2023-04-30T12:32:38;99807.06;;;13.83;100.00
53262;BME280;39658;51.090;-1.786;2023-04-30T12:35:08;99808.69;;;13.84;100.00
53262;BME280;39658;51.090;-1.786;2023-04-30T12:37:35;99817.22;;;13.88;100.00
53262;BME280;39658;51.090;-1.786;2023-04-30T12:40:02;99813.19;;;13.83;100.00
53262;BME280;39658;51.090;-1.786;2023-04-30T12:42:32;99823.81;;;13.74;100.00
53262;BME280;39658;51.090;-1.786;2023-04-30T12:45:02;99828.34;;;13.91;100.00
53262;BME280;39658;51.090;-1.786;2023-04-30T12:47:29;99824.59;;;13.84;100.00
53262;BME280;39658;51.090;-1.786;2023-04-30T12:49:56;99827.00;;;13.77;100.00